KBJC/BJC METAR and TAF weather

Enter ICAO airport designator
Station Type Date Time Source
KBJC METAR 2022/12/10 00:45 UTC NOAA

KBJC 100045Z 30008KT 10SM FEW180 03/M12 A2993


Station Type Date Time Source
KBJC Decoded METAR 2022/12/10 00:45 UTC NOAA

Broomfield / Jeffco, CO, United States (KBJC) 39-55N 105-07W
Dec 09, 2022 - 07:45 PM EST / 2022.12.10 0045 UTC
Wind: from the WNW (300 degrees) at 9 MPH (8 KT):0
Visibility: 10 mile(s):0
Sky conditions: mostly clear
Temperature: 37 F (3 C)
Dew Point: 10 F (-12 C)
Relative Humidity: 32%
Pressure (altimeter): 29.93 in. Hg (1013 hPa)
ob: KBJC 100045Z 30008KT 10SM FEW180 03/M12 A2993
cycle: 1

Station Type Date Time Source
KBJC TAF 2022/12/09 18:40 UTC NOAA

TAF KBJC 091737Z 0918/1018 08005KT P6SM FEW090 SCT130 BKN200
FM100200 27010KT P6SM SCT200
FM101500 31005KT P6SM SCT200

Example: see airport list